createdAt,value
2022-12-03T00:02:57.942Z,17.48
2022-12-03T00:08:01.794Z,18.30
2022-12-03T00:13:04.339Z,18.95
2022-12-03T00:18:06.810Z,19.20
2022-12-03T00:23:10.515Z,18.20
2022-12-03T00:33:15.060Z,18.02
2022-12-03T00:38:18.739Z,19.70
2022-12-03T00:43:22.150Z,18.98
2022-12-03T00:48:24.555Z,19.25
2022-12-03T00:53:28.264Z,19.27
2022-12-03T00:58:30.644Z,19.48
2022-12-03T01:03:33.029Z,19.52
2022-12-03T01:08:36.782Z,19.08
2022-12-03T01:13:39.185Z,19.52
2022-12-03T01:18:41.588Z,20.75
2022-12-03T01:23:45.338Z,20.05
2022-12-03T01:33:49.937Z,20.05
2022-12-03T01:38:53.685Z,19.23
2022-12-03T01:43:56.241Z,21.38
2022-12-03T01:48:58.765Z,23.10
2022-12-03T01:54:03.578Z,19.90
2022-12-03T01:59:05.923Z,21.30
2022-12-03T02:04:10.522Z,21.20
2022-12-03T02:09:14.552Z,20.98
2022-12-03T02:14:18.991Z,21.80
2022-12-03T02:19:24.993Z,21.65
2022-12-03T02:24:34.356Z,21.95
2022-12-03T02:29:38.088Z,22.77
2022-12-03T02:34:41.985Z,22.55
2022-12-03T02:39:48.045Z,22.40
2022-12-03T02:44:52.310Z,23.25
2022-12-03T02:49:55.129Z,23.38
2022-12-03T02:54:57.487Z,22.55
2022-12-03T03:00:01.251Z,24.05
2022-12-03T03:05:03.765Z,21.42
2022-12-03T03:10:07.533Z,21.23
2022-12-03T03:15:12.288Z,19.42
2022-12-03T03:20:14.796Z,18.65
2022-12-03T03:25:18.392Z,18.75
2022-12-03T03:35:24.948Z,17.77
2022-12-03T03:40:27.965Z,17.50
2022-12-03T03:45:30.490Z,17.02
2022-12-03T03:50:34.300Z,18.42
2022-12-03T03:55:36.741Z,18.80
2022-12-03T04:00:39.253Z,17.20
2022-12-03T04:05:42.972Z,17.83
2022-12-03T04:11:02.683Z,17.73
2022-12-03T04:16:05.219Z,17.25
2022-12-03T04:21:38.081Z,18.13
2022-12-03T04:26:57.918Z,18.63
2022-12-03T04:32:17.680Z,17.63
2022-12-03T04:37:21.449Z,16.92
2022-12-03T04:42:23.824Z,17.52
2022-12-03T04:47:26.218Z,17.42
2022-12-03T04:52:29.895Z,16.55
2022-12-03T05:02:34.625Z,17.42
2022-12-03T05:07:38.600Z,18.23
2022-12-03T05:12:41.037Z,19.02
2022-12-03T05:17:43.437Z,21.02
2022-12-03T05:22:47.148Z,21.30
2022-12-03T05:27:49.499Z,19.58
2022-12-03T05:32:51.857Z,21.00
2022-12-03T05:37:55.560Z,18.13
2022-12-03T05:42:57.873Z,20.25
2022-12-03T05:48:00.854Z,19.63
2022-12-03T05:53:04.922Z,18.98
2022-12-03T05:58:07.309Z,21.88
2022-12-03T06:03:09.868Z,19.48
2022-12-03T06:08:13.761Z,21.47
2022-12-03T06:13:16.182Z,22.00
2022-12-03T06:18:18.537Z,21.10
2022-12-03T06:23:22.238Z,21.00
2022-12-03T06:28:24.658Z,20.65
2022-12-03T06:33:27.034Z,22.75
2022-12-03T06:38:30.761Z,23.17
2022-12-03T06:43:33.127Z,23.65
2022-12-03T06:48:35.523Z,26.27
2022-12-03T06:53:39.221Z,25.65
2022-12-03T07:03:43.879Z,25.67
2022-12-03T07:08:47.679Z,28.02
2022-12-03T07:13:50.062Z,27.65
2022-12-03T07:18:52.446Z,25.95
2022-12-03T07:23:56.174Z,27.08
2022-12-03T07:28:58.544Z,23.20
2022-12-03T07:34:00.868Z,22.65
2022-12-03T07:39:04.854Z,23.38
2022-12-03T07:44:13.754Z,22.83
2022-12-03T07:49:16.626Z,20.40
2022-12-03T07:54:20.334Z,22.00
2022-12-03T08:04:24.916Z,18.98
2022-12-03T08:09:28.656Z,20.55
2022-12-03T08:14:31.091Z,19.60
2022-12-03T08:19:33.455Z,21.85
2022-12-03T08:24:37.227Z,22.63
2022-12-03T08:29:39.620Z,22.38
2022-12-03T08:34:43.047Z,21.90
2022-12-03T08:39:48.324Z,23.00
2022-12-03T08:44:50.888Z,21.08
2022-12-03T08:49:55.319Z,19.65
2022-12-03T08:54:59.066Z,21.08
2022-12-03T09:00:07.148Z,19.35
2022-12-03T09:05:14.149Z,20.23
2022-12-03T09:10:18.151Z,21.42
2022-12-03T09:15:20.546Z,19.48
2022-12-03T09:20:23.105Z,19.75
2022-12-03T09:25:26.857Z,17.55
2022-12-03T09:35:32.560Z,17.40
2022-12-03T09:40:36.358Z,18.75
2022-12-03T09:45:38.867Z,16.83
2022-12-03T09:50:41.767Z,15.30
2022-12-03T09:55:46.476Z,12.57
2022-12-03T10:00:49.699Z,13.38
2022-12-03T10:05:52.672Z,13.10
2022-12-03T10:10:57.372Z,14.60
2022-12-03T10:16:00.994Z,14.68
2022-12-03T10:26:07.087Z,18.25
2022-12-03T10:31:10.891Z,19.77
2022-12-03T10:36:24.396Z,20.35
2022-12-03T10:41:28.845Z,20.10
2022-12-03T10:46:31.290Z,23.42
2022-12-03T10:51:33.739Z,21.83
2022-12-03T10:56:37.464Z,20.83
2022-12-03T11:01:39.959Z,20.63
2022-12-03T11:06:42.335Z,24.38
2022-12-03T11:11:46.433Z,24.00
2022-12-03T11:17:12.335Z,23.92
2022-12-03T11:22:24.894Z,25.80
2022-12-03T11:27:28.596Z,24.38
2022-12-03T11:37:34.691Z,25.52
2022-12-03T11:42:41.600Z,26.08
2022-12-03T11:47:45.005Z,22.73
2022-12-03T11:52:48.888Z,21.67
2022-12-03T11:57:57.418Z,20.63
2022-12-03T12:02:59.821Z,20.30
2022-12-03T12:08:03.034Z,19.25
2022-12-03T12:13:07.384Z,17.70
2022-12-03T12:18:28.329Z,19.17
2022-12-03T12:23:30.758Z,19.27
2022-12-03T12:28:34.475Z,18.55
2022-12-03T12:33:36.811Z,17.38
2022-12-03T12:38:39.149Z,17.77
2022-12-03T12:43:42.843Z,16.67
2022-12-03T12:48:45.196Z,19.48
2022-12-03T12:53:47.837Z,18.30
2022-12-03T12:58:51.679Z,18.73
2022-12-03T13:03:54.731Z,17.40
2022-12-03T13:08:58.182Z,18.13
2022-12-03T13:14:02.206Z,19.05
2022-12-03T13:19:14.189Z,17.15
2022-12-03T13:24:33.237Z,22.13
2022-12-03T13:29:36.989Z,19.90
2022-12-03T13:39:47.296Z,22.45
2022-12-03T13:44:51.449Z,24.38
2022-12-03T13:49:55.135Z,22.52
2022-12-03T13:54:57.903Z,23.88
2022-12-03T14:00:01.624Z,25.67
2022-12-03T14:10:07.117Z,25.58
2022-12-03T14:15:11.606Z,21.23
2022-12-03T14:20:14.285Z,25.73
2022-12-03T14:25:16.921Z,25.10
2022-12-03T14:30:20.838Z,22.67
2022-12-03T14:35:23.526Z,22.73
2022-12-03T14:40:26.329Z,22.45
2022-12-03T14:45:30.586Z,24.57
2022-12-03T14:50:32.954Z,25.98
2022-12-03T14:55:35.347Z,26.48
2022-12-03T15:00:39.073Z,24.98
2022-12-03T15:10:43.697Z,23.92
2022-12-03T15:15:47.385Z,25.60
2022-12-03T15:25:52.471Z,24.52
2022-12-03T15:30:56.381Z,27.50
2022-12-03T15:35:58.812Z,26.23
2022-12-03T15:41:20.591Z,26.75
2022-12-03T15:46:24.650Z,24.52
2022-12-03T15:51:27.060Z,24.17
2022-12-03T15:56:29.609Z,23.60
2022-12-03T16:01:33.623Z,25.83
2022-12-03T16:06:36.184Z,25.42
2022-12-03T16:11:38.564Z,24.63
2022-12-03T16:16:42.315Z,22.65
2022-12-03T16:26:46.854Z,21.52
2022-12-03T16:31:50.574Z,21.75
2022-12-03T16:41:55.141Z,22.60
2022-12-03T16:46:58.890Z,22.35
2022-12-03T16:52:01.304Z,25.35
2022-12-03T16:57:03.975Z,24.25
2022-12-03T17:02:07.887Z,21.42
2022-12-03T17:07:10.388Z,22.17
2022-12-03T17:12:12.772Z,25.33
2022-12-03T17:17:16.468Z,24.88
2022-12-03T17:27:23.173Z,23.10
2022-12-03T17:32:26.890Z,24.70
2022-12-03T17:42:31.656Z,23.13
2022-12-03T17:47:35.536Z,22.33
2022-12-03T17:52:37.948Z,23.88
2022-12-03T17:57:40.364Z,22.77
2022-12-03T18:02:44.054Z,21.83
2022-12-03T18:12:48.771Z,22.33
2022-12-03T18:17:52.771Z,23.33
2022-12-03T18:22:55.197Z,24.65
2022-12-03T18:27:57.609Z,22.00
2022-12-03T18:33:04.139Z,21.85
2022-12-03T18:38:06.566Z,22.33
2022-12-03T18:43:12.090Z,25.42
2022-12-03T18:48:16.626Z,23.70
2022-12-03T18:53:19.925Z,23.13
2022-12-03T18:58:22.275Z,22.63
2022-12-03T19:03:26.138Z,23.75
2022-12-03T19:08:29.582Z,20.70
2022-12-03T19:13:31.930Z,22.30
2022-12-03T19:18:35.914Z,24.75
2022-12-03T19:23:38.389Z,24.52
2022-12-03T19:28:41.570Z,24.33
2022-12-03T19:33:45.735Z,25.05
2022-12-03T19:38:52.191Z,22.98
2022-12-03T19:43:59.658Z,25.00
2022-12-03T19:49:06.352Z,23.95
2022-12-03T19:54:11.194Z,24.08
2022-12-03T19:59:14.135Z,25.75
2022-12-03T20:04:17.825Z,28.47
2022-12-03T20:09:21.438Z,25.60
2022-12-03T20:14:24.062Z,26.02
2022-12-03T20:19:27.817Z,25.40
2022-12-03T20:29:32.628Z,24.40
2022-12-03T20:34:36.345Z,27.20
2022-12-03T20:44:41.060Z,25.48
2022-12-03T20:49:44.938Z,25.02
2022-12-03T20:54:47.471Z,25.10
2022-12-03T20:59:49.993Z,25.25
2022-12-03T21:04:54.252Z,27.08
2022-12-03T21:09:56.982Z,26.77
2022-12-03T21:14:59.653Z,24.83
2022-12-03T21:20:03.435Z,27.80
2022-12-03T21:25:06.125Z,28.02
2022-12-03T21:30:08.965Z,25.88
2022-12-03T21:35:13.012Z,29.50
2022-12-03T21:40:15.596Z,30.38
2022-12-03T21:45:18.137Z,28.65
2022-12-03T21:50:24.776Z,29.38
2022-12-03T21:55:27.169Z,27.80
2022-12-03T22:00:29.524Z,29.80
2022-12-03T22:05:33.287Z,30.95
2022-12-03T22:10:35.855Z,30.13
2022-12-03T22:15:39.188Z,27.73
2022-12-03T22:20:43.773Z,30.17
2022-12-03T22:25:46.125Z,28.90
2022-12-03T22:30:48.525Z,31.15
2022-12-03T22:35:59.304Z,28.08
2022-12-03T22:41:05.125Z,30.30
2022-12-03T22:46:10.392Z,31.02
2022-12-03T22:51:14.921Z,32.83
2022-12-03T22:56:17.451Z,31.42
2022-12-03T23:01:21.504Z,28.63
2022-12-03T23:06:25.251Z,29.80
2022-12-03T23:16:31.052Z,30.50
2022-12-03T23:26:38.236Z,28.67
2022-12-03T23:31:40.642Z,30.85
2022-12-03T23:36:43.032Z,31.58
2022-12-03T23:41:46.748Z,31.23
2022-12-03T23:51:51.457Z,29.45
2022-12-03T23:56:55.221Z,29.40
